createdAt,value
2018-09-16T00:02:11.079Z,102008.00
2018-09-16T00:04:39.496Z,102002.44
2018-09-16T00:07:07.880Z,102001.08
2018-09-16T00:09:35.991Z,101990.34
2018-09-16T00:12:04.938Z,101995.78
2018-09-16T00:14:33.067Z,101990.34
2018-09-16T00:17:02.012Z,101994.28
2018-09-16T00:19:30.979Z,101993.19
2018-09-16T00:21:59.436Z,101990.95
2018-09-16T00:24:28.145Z,101996.37
2018-09-16T00:26:57.092Z,101990.20
2018-09-16T00:29:26.000Z,101994.41
2018-09-16T00:31:59.727Z,101991.06
2018-09-16T00:34:28.151Z,101994.30
2018-09-16T00:36:56.600Z,101988.48
2018-09-16T00:39:25.207Z,101989.94
2018-09-16T00:41:53.320Z,101984.39
2018-09-16T00:44:21.920Z,101987.34
2018-09-16T00:46:50.368Z,101980.55
2018-09-16T00:49:19.084Z,101980.92
2018-09-16T00:51:47.172Z,101979.94
2018-09-16T00:54:15.664Z,101977.22
2018-09-16T00:56:44.255Z,101982.66
2018-09-16T00:59:12.964Z,101976.47
2018-09-16T01:01:41.064Z,101974.12
2018-09-16T01:04:09.159Z,101977.36
2018-09-16T01:06:38.236Z,101974.59
2018-09-16T01:09:11.552Z,101969.89
2018-09-16T01:11:40.098Z,101964.94
2018-09-16T01:14:09.201Z,101958.03
2018-09-16T01:16:38.693Z,101957.03
2018-09-16T01:19:07.836Z,101958.00
2018-09-16T01:21:36.432Z,101958.50
2018-09-16T01:24:05.816Z,101959.86
2018-09-16T01:26:34.089Z,101952.83
2018-09-16T01:29:03.020Z,101957.75
2018-09-16T01:31:31.368Z,101952.81
2018-09-16T01:33:59.494Z,101952.94
2018-09-16T01:36:28.239Z,101956.13
2018-09-16T01:38:57.600Z,101953.04
2018-09-16T01:41:25.857Z,101947.87
2018-09-16T01:43:54.491Z,101945.76
2018-09-16T01:46:23.140Z,101946.00
2018-09-16T01:48:51.243Z,101944.52
2018-09-16T01:51:19.676Z,101940.44
2018-09-16T01:53:47.995Z,101936.75
2018-09-16T01:56:16.116Z,101937.73
2018-09-16T01:58:44.232Z,101932.56
2018-09-16T02:01:13.143Z,101929.09
2018-09-16T02:03:41.635Z,101924.27
2018-09-16T02:06:10.347Z,101920.92
2018-09-16T02:08:39.383Z,101918.92
2018-09-16T02:11:07.821Z,101919.28
2018-09-16T02:13:36.452Z,101920.77
2018-09-16T02:16:05.372Z,101920.36
2018-09-16T02:18:33.492Z,101922.20
2018-09-16T02:21:02.075Z,101917.13
2018-09-16T02:23:30.515Z,101915.90
2018-09-16T02:25:59.259Z,101915.14
2018-09-16T02:28:28.172Z,101902.78
2018-09-16T02:30:56.280Z,101903.26
2018-09-16T02:33:24.605Z,101892.63
2018-09-16T02:35:52.958Z,101888.75
2018-09-16T02:38:21.099Z,101885.28
2018-09-16T02:40:49.369Z,101892.73
2018-09-16T02:43:18.919Z,101876.33
2018-09-16T02:45:47.780Z,101876.45
2018-09-16T02:48:16.506Z,101876.64
2018-09-16T02:50:44.908Z,101871.13
2018-09-16T02:53:13.236Z,101876.02
2018-09-16T02:55:41.677Z,101874.63
2018-09-16T02:58:10.416Z,101871.41
2018-09-16T03:00:38.579Z,101871.50
2018-09-16T03:03:07.838Z,101869.05
2018-09-16T03:05:42.028Z,101866.81
2018-09-16T03:08:10.420Z,101865.70
2018-09-16T03:10:38.781Z,101865.58
2018-09-16T03:13:07.840Z,101870.02
2018-09-16T03:15:36.121Z,101868.45
2018-09-16T03:18:04.763Z,101871.79
2018-09-16T03:20:33.342Z,101873.40
2018-09-16T03:23:01.899Z,101876.11
2018-09-16T03:25:30.875Z,101879.48
2018-09-16T03:27:59.508Z,101877.41
2018-09-16T03:30:28.032Z,101878.13
2018-09-16T03:32:56.139Z,101881.25
2018-09-16T03:35:24.784Z,101876.16
2018-09-16T03:37:53.401Z,101877.08
2018-09-16T03:40:22.008Z,101872.50
2018-09-16T03:42:50.251Z,101874.45
2018-09-16T03:45:18.692Z,101872.84
2018-09-16T03:47:47.069Z,101866.08
2018-09-16T03:50:15.780Z,101865.73
2018-09-16T03:52:44.471Z,101865.68
2018-09-16T03:55:12.833Z,101854.30
2018-09-16T03:57:41.194Z,101861.11
2018-09-16T04:00:09.644Z,101863.23
2018-09-16T04:02:38.042Z,101864.58
2018-09-16T04:05:06.872Z,101867.76
2018-09-16T04:07:35.269Z,101856.63
2018-09-16T04:10:03.563Z,101867.50
2018-09-16T04:12:31.987Z,101864.91
2018-09-16T04:15:01.580Z,101871.80
2018-09-16T04:17:30.162Z,101861.56
2018-09-16T04:19:58.681Z,101866.72
2018-09-16T04:22:27.254Z,101864.22
2018-09-16T04:24:55.748Z,101868.28
2018-09-16T04:27:24.301Z,101870.02
2018-09-16T04:29:52.400Z,101870.14
2018-09-16T05:52:25.206Z,101904.37
2018-09-16T05:54:53.877Z,101903.53
2018-09-16T05:57:22.336Z,101908.10
2018-09-16T05:59:50.849Z,101905.90
2018-09-16T06:02:19.292Z,101903.53
2018-09-16T06:04:47.790Z,101898.41
2018-09-16T06:07:17.056Z,101910.73
2018-09-16T06:09:45.800Z,101908.66
2018-09-16T06:12:14.620Z,101902.52
2018-09-16T06:14:42.745Z,101904.89
2018-09-16T06:17:11.772Z,101906.42
2018-09-16T06:19:40.208Z,101905.95
2018-09-16T06:22:09.159Z,101900.06
2018-09-16T06:24:37.894Z,101900.73
2018-09-16T06:27:06.923Z,101900.64
2018-09-16T06:29:35.369Z,101900.20
2018-09-16T06:32:06.405Z,101902.16
2018-09-16T06:34:35.005Z,101895.94
2018-09-16T06:37:04.365Z,101893.07
2018-09-16T06:39:32.622Z,101900.91
2018-09-16T06:42:02.043Z,101890.75
2018-09-16T06:44:30.553Z,101893.55
2018-09-16T06:46:58.736Z,101885.88
2018-09-16T06:49:26.840Z,101891.00
2018-09-16T06:51:54.976Z,101897.31
2018-09-16T06:54:23.097Z,101892.02
2018-09-16T06:56:51.594Z,101889.23
2018-09-16T06:59:19.987Z,101892.27
2018-09-16T07:01:48.435Z,101888.56
2018-09-16T07:04:17.176Z,101885.75
2018-09-16T07:06:45.624Z,101886.44
2018-09-16T07:09:16.287Z,101879.70
2018-09-16T07:11:45.019Z,101855.44
2018-09-16T07:14:15.176Z,101879.89
2018-09-16T07:16:44.011Z,101872.73
2018-09-16T07:19:12.449Z,101877.60
2018-09-16T07:21:41.489Z,101880.76
2018-09-16T07:24:12.756Z,101878.75
2018-09-16T07:26:41.584Z,101868.48
2018-09-16T07:29:10.277Z,101867.28
2018-09-16T07:31:38.990Z,101863.21
2018-09-16T07:34:07.448Z,101865.30
2018-09-16T07:36:36.446Z,101847.75
2018-09-16T07:39:07.581Z,101858.61
2018-09-16T07:41:36.183Z,101863.13
2018-09-16T07:44:04.823Z,101865.36
2018-09-16T07:46:33.500Z,101857.50
2018-09-16T07:49:02.483Z,101857.88
2018-09-16T07:51:31.122Z,101855.45
2018-09-16T07:54:00.096Z,101859.24
2018-09-16T07:56:28.227Z,101850.05
2018-09-16T07:58:56.785Z,101846.31
2018-09-16T08:01:25.057Z,101844.66
2018-09-16T08:03:53.160Z,101846.01
2018-09-16T08:06:21.297Z,101849.44
2018-09-16T08:08:50.232Z,101847.32
2018-09-16T08:11:18.717Z,101847.63
2018-09-16T08:13:47.173Z,101847.50
2018-09-16T08:16:16.381Z,101854.11
2018-09-16T08:18:44.780Z,101852.84
2018-09-16T08:21:13.718Z,101857.51
2018-09-16T08:23:44.897Z,101851.41
2018-09-16T08:26:19.480Z,101859.29
2018-09-16T08:29:43.495Z,101847.47
2018-09-16T08:32:27.537Z,101859.23
2018-09-16T08:34:57.241Z,101858.58
2018-09-16T08:37:25.448Z,101856.92
2018-09-16T08:39:53.595Z,101849.48
2018-09-16T08:42:22.287Z,101847.09
2018-09-16T08:44:51.353Z,101844.31
2018-09-16T08:47:21.452Z,101849.31
2018-09-16T08:49:49.639Z,101847.77
2018-09-16T08:52:19.404Z,101848.84
2018-09-16T08:54:48.469Z,101847.53
2018-09-16T08:57:16.904Z,101849.84
2018-09-16T08:59:46.427Z,101849.63
2018-09-16T09:02:14.889Z,101845.23
2018-09-16T09:04:44.676Z,101843.51
2018-09-16T09:07:13.580Z,101842.99
2018-09-16T09:09:42.708Z,101846.51
2018-09-16T09:12:13.453Z,101846.86
2018-09-16T09:14:45.290Z,101851.31
2018-09-16T09:17:13.657Z,101860.20
2018-09-16T09:19:42.793Z,101855.50
2018-09-16T09:22:16.879Z,101851.31
2018-09-16T09:24:45.169Z,101846.27
2018-09-16T09:27:13.492Z,101843.31
2018-09-16T09:32:34.919Z,101831.50
2018-09-16T09:35:03.821Z,101829.25
2018-09-16T09:37:31.965Z,101830.79
2018-09-16T09:40:00.861Z,101813.91
2018-09-16T09:42:29.398Z,101818.60
2018-09-16T09:44:57.849Z,101814.70
2018-09-16T09:47:26.480Z,101805.84
2018-09-16T09:49:55.233Z,101809.44
2018-09-16T09:52:23.816Z,101806.52
2018-09-16T09:54:52.124Z,101806.20
2018-09-16T09:57:21.463Z,101805.88
2018-09-16T09:59:54.126Z,101793.48
2018-09-16T10:02:22.651Z,101802.94
2018-09-16T10:04:51.371Z,101799.34
2018-09-16T10:07:26.733Z,101797.09
2018-09-16T10:09:55.573Z,101792.30
2018-09-16T10:12:25.127Z,101798.64
2018-09-16T10:15:44.613Z,101798.67
2018-09-16T10:18:16.239Z,101796.72
2018-09-16T10:20:47.015Z,101800.17
2018-09-16T10:23:15.620Z,101795.53
2018-09-16T10:25:44.060Z,101796.04
2018-09-16T10:28:12.473Z,101785.86
2018-09-16T10:30:41.179Z,101782.36
2018-09-16T10:33:09.761Z,101774.22
2018-09-16T10:35:38.276Z,101775.17
2018-09-16T10:38:06.735Z,101770.20
2018-09-16T10:40:35.577Z,101773.79
2018-09-16T10:43:05.130Z,101763.45
2018-09-16T10:45:33.964Z,101765.68
2018-09-16T10:48:02.842Z,101768.97
2018-09-16T10:50:31.865Z,101758.00
2018-09-16T10:53:35.615Z,101762.97
2018-09-16T10:56:05.461Z,101761.98
2018-09-16T10:58:33.723Z,101754.95
2018-09-16T11:01:02.911Z,101754.70
2018-09-16T11:03:31.948Z,101750.20
2018-09-16T11:06:00.556Z,101747.36
2018-09-16T11:08:29.007Z,101746.78
2018-09-16T11:10:57.505Z,101742.79
2018-09-16T11:13:25.957Z,101745.95
2018-09-16T11:15:54.796Z,101750.08
2018-09-16T11:18:23.721Z,101739.18
2018-09-16T11:20:52.444Z,101736.52
2018-09-16T11:23:20.556Z,101736.77
2018-09-16T11:25:48.990Z,101739.67
2018-09-16T11:28:17.761Z,101732.45
2018-09-16T11:30:46.184Z,101734.30
2018-09-16T11:33:14.830Z,101729.97
2018-09-16T11:35:43.313Z,101735.58
2018-09-16T11:38:12.170Z,101729.18
2018-09-16T11:40:40.347Z,101734.89
2018-09-16T11:43:08.645Z,101723.34
2018-09-16T11:45:36.781Z,101716.19
2018-09-16T11:48:05.231Z,101715.82
2018-09-16T11:50:33.341Z,101720.14
2018-09-16T11:53:02.970Z,101712.34
2018-09-16T11:55:31.647Z,101705.43
2018-09-16T11:58:00.389Z,101705.31
2018-09-16T12:00:28.868Z,101703.53
2018-09-16T12:02:57.322Z,101696.28
2018-09-16T12:05:25.836Z,101692.11
2018-09-16T12:07:54.350Z,101680.58
2018-09-16T12:10:24.293Z,101690.61
2018-09-16T12:12:52.480Z,101685.15
2018-09-16T12:15:21.149Z,101689.10
2018-09-16T12:17:52.943Z,101684.69
2018-09-16T12:20:23.237Z,101677.84
2018-09-16T12:22:51.713Z,101685.09
2018-09-16T12:25:20.600Z,101686.92
2018-09-16T12:31:22.904Z,101668.47
2018-09-16T12:33:51.331Z,101658.12
2018-09-16T12:36:19.813Z,101652.67
2018-09-16T12:38:48.275Z,101653.73
2018-09-16T12:41:37.922Z,101658.52
2018-09-16T12:47:49.788Z,101642.86
2018-09-16T12:50:22.154Z,101648.17
2018-09-16T12:53:00.674Z,101649.48
2018-09-16T12:55:32.213Z,101635.29
2018-09-16T12:58:00.525Z,101641.34
2018-09-16T13:00:35.451Z,101631.22
2018-09-16T13:03:04.020Z,101626.44
2018-09-16T13:05:39.157Z,101622.06
2018-09-16T13:08:15.010Z,101629.77
2018-09-16T13:10:46.358Z,101626.70
2018-09-16T13:13:28.007Z,101620.36
2018-09-16T13:16:01.764Z,101622.25
2018-09-16T13:21:33.570Z,101603.70
2018-09-16T13:29:14.545Z,101604.75
2018-09-16T13:31:43.244Z,101606.33
2018-09-16T13:34:16.344Z,101603.73
2018-09-16T13:36:45.353Z,101607.98
2018-09-16T13:39:13.524Z,101603.63
2018-09-16T13:41:41.878Z,101598.89
2018-09-16T13:44:17.193Z,101596.63
2018-09-16T13:46:45.673Z,101597.45
2018-09-16T13:49:19.037Z,101589.97
2018-09-16T13:51:47.851Z,101590.24
2018-09-16T13:54:16.524Z,101579.81
2018-09-16T13:56:45.242Z,101584.27
2018-09-16T13:59:13.364Z,101576.34
2018-09-16T14:01:41.817Z,101582.58
2018-09-16T14:04:10.321Z,101568.42
2018-09-16T14:06:38.771Z,101567.09
2018-09-16T14:09:09.416Z,101564.70
2018-09-16T14:11:37.880Z,101573.62
2018-09-16T14:14:06.362Z,101569.94
2018-09-16T14:16:34.692Z,101570.17
2018-09-16T14:19:02.837Z,101568.41
2018-09-16T14:21:30.959Z,101558.62
2018-09-16T14:24:00.002Z,101565.19
2018-09-16T14:26:28.515Z,101562.70
2018-09-16T14:28:56.660Z,101563.99
2018-09-16T14:31:25.162Z,101559.66
2018-09-16T14:33:53.585Z,101553.27
2018-09-16T14:36:22.040Z,101545.73
2018-09-16T14:38:50.168Z,101553.67
2018-09-16T14:41:18.293Z,101542.20
2018-09-16T14:43:59.461Z,101530.73
2018-09-16T14:50:15.229Z,101534.67
2018-09-16T14:52:43.705Z,101525.25
2018-09-16T14:55:12.751Z,101525.59
2018-09-16T14:57:41.186Z,101517.93
2018-09-16T15:00:11.209Z,101518.84
2018-09-16T15:02:44.344Z,101517.09
2018-09-16T15:05:13.244Z,101506.09
2018-09-16T15:07:42.868Z,101515.95
2018-09-16T15:10:13.488Z,101507.14
2018-09-16T15:12:56.356Z,101504.92
2018-09-16T15:15:35.736Z,101502.41
2018-09-16T15:18:04.148Z,101497.32
2018-09-16T15:20:33.659Z,101498.45
2018-09-16T15:23:07.092Z,101496.95
2018-09-16T15:25:44.849Z,101494.17
2018-09-16T15:28:15.244Z,101495.66
2018-09-16T15:30:43.770Z,101494.13
2018-09-16T15:33:11.884Z,101492.83
2018-09-16T15:35:40.377Z,101489.98
2018-09-16T15:40:49.210Z,101485.83
2018-09-16T15:43:17.433Z,101481.16
2018-09-16T15:45:45.956Z,101482.88
2018-09-16T15:48:14.176Z,101482.73
2018-09-16T15:50:42.448Z,101480.55
2018-09-16T15:53:11.053Z,101483.72
2018-09-16T15:55:39.562Z,101472.70
2018-09-16T15:58:08.077Z,101474.36
2018-09-16T16:00:36.409Z,101473.75
2018-09-16T16:03:04.593Z,101471.08
2018-09-16T16:05:33.081Z,101475.70
2018-09-16T16:08:01.216Z,101476.30
2018-09-16T16:10:30.009Z,101469.83
2018-09-16T16:12:58.612Z,101471.08
2018-09-16T16:15:29.120Z,101470.11
2018-09-16T16:17:57.764Z,101474.45
2018-09-16T16:20:26.121Z,101473.81
2018-09-16T16:22:54.596Z,101472.30
2018-09-16T16:25:23.269Z,101465.58
2018-09-16T16:27:51.728Z,101459.58
2018-09-16T16:30:20.202Z,101456.50
2018-09-16T16:32:48.665Z,101447.94
2018-09-16T16:35:17.142Z,101449.27
2018-09-16T16:37:45.269Z,101455.39
2018-09-16T16:40:13.736Z,101456.00
2018-09-16T16:42:41.860Z,101451.45
2018-09-16T16:45:10.345Z,101445.47
2018-09-16T16:47:38.812Z,101445.83
2018-09-16T16:50:06.953Z,101446.19
2018-09-16T16:52:35.800Z,101450.52
2018-09-16T16:55:04.183Z,101456.69
2018-09-16T16:57:32.760Z,101451.53
2018-09-16T17:00:01.236Z,101449.48
2018-09-16T17:02:29.566Z,101451.74
2018-09-16T17:04:57.713Z,101447.88
2018-09-16T17:07:26.048Z,101450.85
2018-09-16T17:09:54.188Z,101452.62
2018-09-16T17:12:22.674Z,101451.84
2018-09-16T17:14:50.804Z,101467.64
2018-09-16T17:17:19.269Z,101464.09
2018-09-16T17:19:47.740Z,101466.55
2018-09-16T17:22:15.880Z,101457.81
2018-09-16T17:24:44.016Z,101462.67
2018-09-16T17:27:12.501Z,101474.05
2018-09-16T17:29:41.164Z,101470.45
2018-09-16T17:32:09.512Z,101467.75
2018-09-16T17:34:37.716Z,101463.47
2018-09-16T17:37:05.828Z,101470.00
2018-09-16T17:39:34.381Z,101473.46
2018-09-16T17:42:02.915Z,101474.15
2018-09-16T17:44:31.609Z,101471.94
2018-09-16T17:47:00.252Z,101468.50
2018-09-16T17:49:28.956Z,101464.19
2018-09-16T17:51:57.434Z,101458.03
2018-09-16T17:54:25.587Z,101459.80
2018-09-16T17:56:54.065Z,101456.90
2018-09-16T17:59:22.201Z,101465.13
2018-09-16T18:01:50.535Z,101479.41
2018-09-16T18:04:25.492Z,101472.53
2018-09-16T18:06:54.174Z,101470.15
2018-09-16T18:09:22.303Z,101466.54
2018-09-16T18:11:52.289Z,101473.26
2018-09-16T18:14:21.711Z,101457.10
2018-09-16T18:16:50.379Z,101467.58
2018-09-16T18:19:18.993Z,101474.75
2018-09-16T18:21:47.150Z,101477.68
2018-09-16T18:24:15.281Z,101474.94
2018-09-16T18:26:43.419Z,101479.38
2018-09-16T18:29:11.570Z,101477.67
2018-09-16T18:31:40.081Z,101473.37
2018-09-16T18:34:08.221Z,101469.77
2018-09-16T18:36:36.365Z,101466.00
2018-09-16T18:39:07.405Z,101466.16
2018-09-16T18:41:36.090Z,101469.92
2018-09-16T18:44:04.752Z,101475.03
2018-09-16T18:46:33.101Z,101478.59
2018-09-16T18:49:01.964Z,101485.06
2018-09-16T18:51:30.465Z,101488.45
2018-09-16T18:53:58.940Z,101499.20
2018-09-16T18:56:27.257Z,101500.17
2018-09-16T18:58:55.474Z,101499.65
2018-09-16T19:01:23.944Z,101500.80
2018-09-16T19:03:52.425Z,101504.73
2018-09-16T19:06:21.206Z,101505.22
2018-09-16T19:08:49.357Z,101504.83
2018-09-16T19:11:17.865Z,101514.57
2018-09-16T19:13:46.637Z,101520.70
2018-09-16T19:16:14.822Z,101517.09
2018-09-16T19:18:43.176Z,101513.60
2018-09-16T19:21:11.553Z,101517.66
2018-09-16T19:23:40.156Z,101518.66
2018-09-16T19:26:08.622Z,101522.23
2018-09-16T19:28:36.753Z,101530.04
2018-09-16T19:31:05.404Z,101535.67
2018-09-16T19:33:33.748Z,101538.52
2018-09-16T19:36:02.667Z,101542.22
2018-09-16T19:38:30.821Z,101544.58
2018-09-16T19:40:59.297Z,101541.80
2018-09-16T19:43:27.844Z,101532.56
2018-09-16T19:45:55.968Z,101534.75
2018-09-16T19:48:24.158Z,101540.88
2018-09-16T19:50:52.276Z,101541.87
2018-09-16T19:53:20.421Z,101544.36
2018-09-16T19:55:48.568Z,101545.48
2018-09-16T19:58:17.953Z,101541.50
2018-09-16T20:00:46.469Z,101548.66
2018-09-16T20:03:14.625Z,101549.45
2018-09-16T20:05:42.834Z,101553.32
2018-09-16T20:08:11.219Z,101558.78
2018-09-16T20:10:41.132Z,101559.60
2018-09-16T20:13:09.278Z,101555.94
2018-09-16T20:15:38.091Z,101555.87
2018-09-16T20:18:07.007Z,101550.88
2018-09-16T20:20:35.621Z,101558.52
2018-09-16T20:23:04.152Z,101549.58
2018-09-16T20:25:32.440Z,101552.27
2018-09-16T20:28:01.338Z,101549.94
2018-09-16T20:30:29.804Z,101551.72
2018-09-16T20:32:58.709Z,101550.61
2018-09-16T20:35:26.841Z,101546.25
2018-09-16T20:37:54.989Z,101537.14
2018-09-16T20:40:23.093Z,101531.62
2018-09-16T20:42:51.597Z,101529.92
2018-09-16T20:45:19.758Z,101521.22
2018-09-16T20:47:48.085Z,101523.43
2018-09-16T20:50:16.228Z,101516.31
2018-09-16T20:52:44.357Z,101510.14
2018-09-16T20:55:12.873Z,101518.45
2018-09-16T20:57:41.328Z,101513.62
2018-09-16T21:00:09.489Z,101519.13
2018-09-16T21:02:38.545Z,101518.66
2018-09-16T21:05:06.936Z,101507.39
2018-09-16T21:07:35.388Z,101508.55
2018-09-16T21:10:03.906Z,101511.80
2018-09-16T21:12:34.218Z,101503.61
2018-09-16T21:15:02.685Z,101499.52
2018-09-16T21:17:31.222Z,101506.70
2018-09-16T21:19:59.788Z,101504.26
2018-09-16T21:22:28.341Z,101500.41
2018-09-16T21:24:56.813Z,101495.77
2018-09-16T21:27:25.273Z,101501.34
2018-09-16T21:29:53.941Z,101506.80
2018-09-16T21:32:22.684Z,101504.95
2018-09-16T21:34:51.314Z,101501.50
2018-09-16T21:37:19.424Z,101504.38
2018-09-16T21:39:47.556Z,101503.26
2018-09-16T21:42:16.057Z,101499.33
2018-09-16T21:44:44.592Z,101496.39
2018-09-16T21:47:12.973Z,101492.91
2018-09-16T21:49:41.434Z,101492.30
2018-09-16T21:52:09.556Z,101488.89
2018-09-16T21:54:38.248Z,101493.77
2018-09-16T21:57:06.837Z,101481.34
2018-09-16T21:59:35.041Z,101479.97
2018-09-16T22:02:03.193Z,101479.47
2018-09-16T22:04:31.724Z,101476.70
2018-09-16T22:07:00.113Z,101473.89
2018-09-16T22:09:28.464Z,101469.66
2018-09-16T22:11:56.741Z,101471.60
2018-09-16T22:14:25.528Z,101473.96
2018-09-16T22:16:54.221Z,101469.82
2018-09-16T22:19:22.565Z,101470.52
2018-09-16T22:21:51.160Z,101468.02
2018-09-16T22:24:19.275Z,101460.78
2018-09-16T22:26:47.436Z,101461.63
2018-09-16T22:29:15.787Z,101463.87
2018-09-16T22:31:44.477Z,101459.91
2018-09-16T22:34:12.957Z,101463.42
2018-09-16T22:36:41.103Z,101477.66
2018-09-16T22:39:10.052Z,101473.42
2018-09-16T22:41:38.207Z,101468.97
2018-09-16T22:44:06.538Z,101474.58
2018-09-16T22:46:34.688Z,101479.22
2018-09-16T22:49:03.063Z,101482.20
2018-09-16T22:51:31.761Z,101475.76
2018-09-16T22:54:00.241Z,101466.91
2018-09-16T22:56:28.414Z,101471.41
2018-09-16T22:58:56.853Z,101467.63
2018-09-16T23:01:25.514Z,101469.61
2018-09-16T23:03:53.972Z,101471.08
2018-09-16T23:06:22.161Z,101458.99
2018-09-16T23:08:55.501Z,101461.86
2018-09-16T23:11:24.984Z,101461.13
2018-09-16T23:13:53.673Z,101451.39
2018-09-16T23:16:22.502Z,101459.95
2018-09-16T23:18:50.628Z,101457.85
2018-09-16T23:21:19.101Z,101457.90
2018-09-16T23:23:47.597Z,101460.18
2018-09-16T23:26:16.157Z,101467.67
2018-09-16T23:28:44.638Z,101461.77
2018-09-16T23:31:13.309Z,101465.26
2018-09-16T23:33:41.797Z,101454.42
2018-09-16T23:36:10.259Z,101454.35
2018-09-16T23:38:38.397Z,101449.03
2018-09-16T23:41:06.552Z,101449.95
2018-09-16T23:43:35.044Z,101457.00
2018-09-16T23:46:03.173Z,101446.78
2018-09-16T23:48:32.361Z,101451.70
2018-09-16T23:51:00.825Z,101456.55
2018-09-16T23:53:29.581Z,101455.96
2018-09-16T23:55:58.061Z,101457.72
2018-09-16T23:58:26.576Z,101454.52
